createdAt,value
2018-10-12T00:00:37.715Z,29.87
2018-10-12T00:03:07.625Z,28.57
2018-10-12T00:05:37.555Z,29.57
2018-10-12T00:08:07.553Z,28.80
2018-10-12T00:10:37.411Z,30.33
2018-10-12T00:13:07.373Z,30.77
2018-10-12T00:15:37.359Z,29.53
2018-10-12T00:18:07.257Z,29.90
2018-10-12T00:20:37.127Z,31.17
2018-10-12T00:23:07.082Z,32.17
2018-10-12T00:25:36.920Z,33.50
2018-10-12T00:28:06.862Z,35.03
2018-10-12T00:30:36.908Z,33.73
2018-10-12T00:33:06.821Z,39.77
2018-10-12T00:35:36.643Z,39.10
2018-10-12T00:38:06.488Z,34.40
2018-10-12T00:40:36.313Z,32.17
2018-10-12T00:43:06.141Z,33.60
2018-10-12T00:45:35.999Z,30.70
2018-10-12T00:48:05.815Z,31.53
2018-10-12T00:50:35.623Z,29.87
2018-10-12T00:53:05.543Z,31.83
2018-10-12T00:55:35.546Z,33.43
2018-10-12T00:58:05.418Z,31.57
2018-10-12T01:00:35.342Z,31.00
2018-10-12T01:03:05.134Z,31.97
2018-10-12T01:05:34.972Z,30.93
2018-10-12T01:08:04.951Z,31.90
2018-10-12T01:10:34.805Z,31.60
2018-10-12T01:13:04.719Z,30.53
2018-10-12T01:15:34.575Z,31.40
2018-10-12T01:18:04.517Z,32.70
2018-10-12T01:20:34.468Z,31.37
2018-10-12T01:23:04.451Z,30.40
2018-10-12T01:25:34.293Z,30.03
2018-10-12T01:28:04.179Z,31.93
2018-10-12T01:30:34.123Z,30.93
2018-10-12T01:33:05.201Z,30.97
2018-10-12T01:35:35.463Z,31.40
2018-10-12T01:38:05.312Z,31.70
2018-10-12T01:40:35.123Z,32.03
2018-10-12T01:43:04.960Z,31.93
2018-10-12T01:45:34.792Z,33.73
2018-10-12T01:48:04.674Z,32.37
2018-10-12T01:50:34.578Z,32.40
2018-10-12T01:53:04.410Z,32.83
2018-10-12T01:55:34.273Z,32.63
2018-10-12T01:58:04.212Z,33.33
2018-10-12T02:00:34.131Z,33.80
2018-10-12T02:03:04.093Z,32.20
2018-10-12T02:05:34.018Z,31.10
2018-10-12T02:08:03.932Z,29.83
2018-10-12T02:10:33.859Z,29.30
2018-10-12T02:13:03.652Z,29.90
2018-10-12T02:15:33.664Z,32.23
2018-10-12T02:18:03.568Z,31.90
2018-10-12T02:20:33.479Z,31.60
2018-10-12T02:23:03.287Z,29.83
2018-10-12T02:25:33.140Z,30.17
2018-10-12T02:28:03.087Z,29.60
2018-10-12T02:30:32.919Z,30.63
2018-10-12T02:33:02.852Z,30.73
2018-10-12T02:35:32.823Z,31.23
2018-10-12T02:38:02.659Z,30.93
2018-10-12T02:40:32.603Z,32.13
2018-10-12T02:43:02.449Z,28.57
2018-10-12T02:45:32.245Z,30.30
2018-10-12T02:48:02.132Z,29.33
2018-10-12T02:50:32.003Z,33.07
2018-10-12T02:53:01.793Z,30.90
2018-10-12T02:55:31.702Z,32.00
2018-10-12T02:58:01.627Z,32.77
2018-10-12T03:00:31.475Z,29.87
2018-10-12T03:03:01.393Z,29.50
2018-10-12T03:05:31.239Z,32.30
2018-10-12T03:08:01.172Z,35.17
2018-10-12T03:10:30.979Z,41.87
2018-10-12T03:13:00.785Z,36.67
2018-10-12T03:15:30.673Z,36.20
2018-10-12T03:18:00.575Z,36.00
2018-10-12T03:20:31.653Z,33.47
2018-10-12T03:23:01.441Z,33.80
2018-10-12T03:25:31.332Z,32.70
2018-10-12T03:28:17.053Z,32.43
2018-10-12T03:30:46.883Z,34.40
2018-10-12T03:33:16.799Z,32.57
2018-10-12T03:35:47.186Z,33.63
2018-10-12T03:38:17.137Z,31.90
2018-10-12T03:40:47.059Z,29.93
2018-10-12T03:43:16.918Z,31.47
2018-10-12T03:45:46.799Z,31.53
2018-10-12T03:48:16.711Z,31.80
2018-10-12T03:50:46.616Z,29.90
2018-10-12T03:53:16.811Z,30.20
2018-10-12T03:55:46.613Z,30.50
2018-10-12T03:58:16.574Z,30.47
2018-10-12T04:00:46.419Z,29.60
2018-10-12T04:03:16.267Z,29.70
2018-10-12T04:05:46.195Z,30.27
2018-10-12T04:08:15.973Z,32.03
2018-10-12T04:10:45.843Z,31.80
2018-10-12T04:13:15.688Z,31.10
2018-10-12T04:15:45.550Z,33.70
2018-10-12T04:18:15.498Z,33.67
2018-10-12T04:20:45.324Z,35.90
2018-10-12T04:23:15.225Z,34.20
2018-10-12T04:25:45.085Z,33.33
2018-10-12T04:28:15.069Z,32.17
2018-10-12T04:30:44.966Z,30.03
2018-10-12T04:33:14.830Z,31.20
2018-10-12T04:35:44.715Z,33.77
2018-10-12T04:38:14.599Z,32.20
2018-10-12T04:41:04.494Z,32.17
2018-10-12T04:43:34.573Z,32.03
2018-10-12T04:46:06.092Z,32.67
2018-10-12T04:48:36.543Z,32.80
2018-10-12T04:51:08.670Z,32.40
2018-10-12T04:53:38.863Z,33.20
2018-10-12T04:56:12.302Z,30.97
2018-10-12T04:58:42.958Z,33.50
2018-10-12T05:01:13.092Z,33.50
2018-10-12T05:03:44.079Z,33.63
2018-10-12T05:06:14.886Z,33.00
2018-10-12T05:08:44.593Z,32.67
2018-10-12T05:11:14.354Z,32.63
2018-10-12T05:13:44.983Z,31.53
2018-10-12T05:16:15.689Z,32.27
2018-10-12T05:18:47.958Z,32.57
2018-10-12T05:21:18.199Z,33.47
2018-10-12T05:23:48.873Z,32.80
2018-10-12T05:26:19.451Z,31.73
2018-10-12T05:28:49.281Z,31.60
2018-10-12T05:31:19.025Z,31.23
2018-10-12T05:33:49.201Z,31.97
2018-10-12T05:36:19.902Z,31.73
2018-10-12T05:38:50.522Z,31.73
2018-10-12T05:41:20.293Z,67.80
2018-10-12T05:43:51.416Z,35.30
2018-10-12T05:46:21.527Z,33.90
2018-10-12T05:49:02.318Z,33.50
2018-10-12T05:51:32.553Z,34.13
2018-10-12T05:54:03.651Z,34.80
2018-10-12T05:56:35.235Z,34.63
2018-10-12T05:59:05.516Z,34.33
2018-10-12T06:01:36.769Z,32.00
2018-10-12T06:04:06.969Z,33.07
2018-10-12T06:06:37.391Z,32.87
2018-10-12T06:09:08.723Z,33.80
2018-10-12T06:11:39.244Z,34.03
2018-10-12T06:14:09.361Z,34.63
2018-10-12T06:16:39.090Z,34.73
2018-10-12T06:19:08.862Z,37.33
2018-10-12T06:21:39.581Z,40.53
2018-10-12T06:24:09.654Z,37.13
2018-10-12T06:26:40.099Z,42.37
2018-10-12T06:29:09.772Z,44.97
2018-10-12T06:31:40.722Z,44.60
2018-10-12T06:34:10.641Z,44.60
2018-10-12T06:36:40.872Z,43.37
2018-10-12T06:39:10.967Z,42.93
2018-10-12T06:41:41.532Z,43.47
2018-10-12T06:44:12.514Z,45.77
2018-10-12T06:46:42.350Z,47.93
2018-10-12T06:49:13.502Z,44.97
2018-10-12T06:51:45.382Z,42.93
2018-10-12T06:54:15.998Z,41.43
2018-10-12T06:56:47.777Z,39.70
2018-10-12T06:59:17.741Z,41.20
2018-10-12T07:01:47.486Z,42.20
2018-10-12T07:04:18.617Z,39.63
2018-10-12T07:06:49.199Z,40.17
2018-10-12T07:09:19.529Z,40.37
2018-10-12T07:11:49.813Z,40.00
2018-10-12T07:14:19.847Z,67.97
2018-10-12T07:16:50.718Z,41.33
2018-10-12T07:19:21.231Z,39.50
2018-10-12T07:21:51.582Z,39.43
2018-10-12T07:24:22.987Z,37.87
2018-10-12T07:26:53.787Z,37.57
2018-10-12T07:29:25.108Z,37.80
2018-10-12T07:31:55.465Z,38.60
2018-10-12T07:34:25.130Z,37.33
2018-10-12T07:36:55.353Z,36.17
2018-10-12T07:39:26.528Z,35.63
2018-10-12T07:41:56.625Z,38.20
2018-10-12T07:44:27.275Z,36.73
2018-10-12T07:46:57.875Z,36.03
2018-10-12T07:49:28.722Z,34.93
2018-10-12T07:51:59.072Z,36.30
2018-10-12T07:54:29.554Z,35.17
2018-10-12T07:57:05.317Z,35.70
2018-10-12T07:59:35.210Z,34.63
2018-10-12T08:02:05.826Z,34.27
2018-10-12T08:04:35.602Z,34.23
2018-10-12T08:07:05.786Z,33.70
2018-10-12T08:09:35.971Z,33.27
2018-10-12T08:12:06.387Z,33.90
2018-10-12T08:14:36.682Z,34.33
2018-10-12T08:17:07.207Z,32.77
2018-10-12T08:19:38.130Z,33.90
2018-10-12T08:22:09.167Z,32.47
2018-10-12T08:24:38.887Z,34.17
2018-10-12T08:27:08.770Z,32.60
2018-10-12T08:29:39.234Z,31.63
2018-10-12T08:32:09.194Z,32.70
2018-10-12T08:34:40.554Z,34.13
2018-10-12T08:37:11.957Z,32.93
2018-10-12T08:39:42.450Z,32.97
2018-10-12T08:42:13.465Z,54.73
2018-10-12T08:44:45.817Z,34.00
2018-10-12T08:47:17.104Z,30.63
2018-10-12T08:49:46.939Z,32.07
2018-10-12T08:52:18.294Z,30.90
2018-10-12T08:54:49.224Z,30.90
2018-10-12T08:57:19.472Z,30.60
2018-10-12T08:59:51.246Z,31.93
2018-10-12T09:02:22.144Z,30.23
2018-10-12T09:04:54.321Z,30.40
2018-10-12T09:07:23.990Z,30.27
2018-10-12T09:09:54.879Z,30.10
2018-10-12T09:12:25.104Z,30.90
2018-10-12T09:14:56.467Z,29.67
2018-10-12T09:17:26.622Z,30.10
2018-10-12T09:19:57.872Z,29.77
2018-10-12T09:22:29.173Z,28.73
2018-10-12T09:24:59.272Z,29.47
2018-10-12T09:27:28.982Z,29.90
2018-10-12T09:30:00.407Z,28.43
2018-10-12T09:32:30.300Z,27.17
2018-10-12T09:35:01.995Z,28.70
2018-10-12T09:37:32.393Z,28.43
2018-10-12T09:40:03.455Z,29.63
2018-10-12T09:42:34.198Z,29.73
2018-10-12T09:45:04.012Z,31.87
2018-10-12T09:47:35.271Z,32.53
2018-10-12T09:50:06.058Z,31.63
2018-10-12T09:52:36.223Z,32.30
2018-10-12T09:55:06.818Z,31.23
2018-10-12T09:57:37.627Z,31.70
2018-10-12T10:01:12.471Z,31.93
2018-10-12T10:03:47.527Z,31.53
2018-10-12T10:06:17.283Z,32.57
2018-10-12T10:08:48.699Z,51.20
2018-10-12T10:11:19.361Z,32.00
2018-10-12T10:13:50.014Z,31.60
2018-10-12T10:16:21.107Z,30.50
2018-10-12T10:18:52.351Z,31.27
2018-10-12T10:21:22.703Z,30.87
2018-10-12T10:23:53.136Z,29.77
2018-10-12T10:26:23.997Z,30.73
2018-10-12T10:28:55.715Z,30.17
2018-10-12T10:31:25.633Z,29.43
2018-10-12T10:33:55.923Z,28.30
2018-10-12T10:36:25.948Z,29.67
2018-10-12T10:38:56.433Z,31.03
2018-10-12T10:41:27.374Z,30.17
2018-10-12T10:43:58.002Z,30.70
2018-10-12T10:46:29.071Z,31.40
2018-10-12T10:48:59.177Z,30.13
2018-10-12T10:51:29.638Z,30.60
2018-10-12T10:53:59.473Z,31.07
2018-10-12T10:56:29.349Z,30.50
2018-10-12T10:58:59.219Z,30.37
2018-10-12T11:01:29.108Z,29.87
2018-10-12T11:03:58.987Z,25.60
2018-10-12T11:06:28.887Z,24.57
2018-10-12T11:08:58.737Z,23.97
2018-10-12T11:11:28.604Z,21.90
2018-10-12T11:13:58.564Z,24.87
2018-10-12T11:16:28.421Z,34.23
2018-10-12T11:18:58.267Z,25.87
2018-10-12T11:21:28.205Z,24.20
2018-10-12T11:23:58.087Z,23.47
2018-10-12T11:26:28.009Z,23.73
2018-10-12T11:28:57.858Z,24.40
2018-10-12T11:31:27.663Z,22.83
2018-10-12T11:33:57.576Z,23.73
2018-10-12T11:36:27.694Z,22.93
2018-10-12T11:38:57.594Z,22.70
2018-10-12T11:41:27.365Z,22.67
2018-10-12T11:43:57.188Z,22.60
2018-10-12T11:46:27.101Z,22.17
2018-10-12T11:48:56.961Z,24.03
2018-10-12T11:51:26.850Z,23.83
2018-10-12T11:53:56.768Z,23.87
2018-10-12T11:56:26.667Z,23.80
2018-10-12T11:58:56.611Z,23.93
2018-10-12T12:01:26.422Z,25.80
2018-10-12T12:03:56.315Z,27.33
2018-10-12T12:06:26.237Z,28.80
2018-10-12T12:08:55.991Z,27.97
2018-10-12T12:11:25.863Z,27.70
2018-10-12T12:13:55.850Z,28.60
2018-10-12T12:16:25.780Z,30.23
2018-10-12T12:18:55.670Z,29.43
2018-10-12T12:21:25.527Z,40.60
2018-10-12T12:23:55.439Z,32.63
2018-10-12T12:26:25.344Z,29.77
2018-10-12T12:28:55.946Z,28.30
2018-10-12T12:31:25.810Z,27.63
2018-10-12T12:33:55.718Z,29.53
2018-10-12T12:36:25.635Z,29.27
2018-10-12T12:38:55.526Z,27.13
2018-10-12T12:41:25.360Z,27.20
2018-10-12T12:43:55.348Z,28.37
2018-10-12T12:46:25.156Z,28.13
2018-10-12T12:48:55.518Z,28.03
2018-10-12T12:51:24.918Z,27.30
2018-10-12T12:53:54.735Z,25.87
2018-10-12T12:56:24.658Z,26.67
2018-10-12T12:58:54.504Z,26.53
2018-10-12T13:01:24.351Z,27.50
2018-10-12T13:03:54.291Z,27.27
2018-10-12T13:06:24.341Z,27.77
2018-10-12T13:08:54.160Z,26.90
2018-10-12T13:11:24.095Z,27.17
2018-10-12T13:13:54.092Z,31.17
2018-10-12T13:16:23.991Z,34.43
2018-10-12T13:18:53.884Z,36.63
2018-10-12T13:21:23.803Z,29.27
2018-10-12T13:23:53.694Z,29.07
2018-10-12T13:26:23.773Z,25.67
2018-10-12T13:28:53.563Z,26.07
2018-10-12T13:31:23.336Z,26.80
2018-10-12T13:33:53.259Z,26.93
2018-10-12T13:36:23.148Z,26.93
2018-10-12T13:38:52.986Z,27.27
2018-10-12T13:41:22.847Z,29.23
2018-10-12T13:43:52.758Z,27.17
2018-10-12T13:46:22.619Z,27.37
2018-10-12T13:48:52.443Z,27.63
2018-10-12T13:51:22.278Z,27.80
2018-10-12T13:53:52.214Z,27.00
2018-10-12T13:56:22.136Z,28.03
2018-10-12T13:58:52.112Z,27.87
2018-10-12T14:01:21.887Z,27.80
2018-10-12T14:03:51.818Z,27.40
2018-10-12T14:06:21.776Z,30.47
2018-10-12T14:08:51.651Z,29.80
2018-10-12T14:11:21.556Z,36.30
2018-10-12T14:13:51.411Z,30.00
2018-10-12T14:16:21.316Z,28.30
2018-10-12T14:18:51.370Z,27.77
2018-10-12T14:21:21.156Z,27.27
2018-10-12T14:23:50.988Z,28.00
2018-10-12T14:26:20.898Z,27.10
2018-10-12T14:28:50.853Z,29.00
2018-10-12T14:31:20.784Z,27.80
2018-10-12T14:33:50.714Z,28.47
2018-10-12T14:36:20.607Z,28.23
2018-10-12T14:38:50.493Z,26.70
2018-10-12T14:41:20.395Z,27.77
2018-10-12T14:43:50.411Z,27.07
2018-10-12T14:46:20.298Z,31.40
2018-10-12T14:48:50.290Z,30.40
2018-10-12T14:51:20.223Z,30.40
2018-10-12T14:53:50.350Z,29.63
2018-10-12T14:56:20.443Z,31.10
2018-10-12T14:58:50.485Z,30.40
2018-10-12T15:01:20.482Z,29.27
2018-10-12T15:03:50.366Z,28.57
2018-10-12T15:06:20.300Z,31.83
2018-10-12T15:08:50.389Z,30.57
2018-10-12T15:11:20.311Z,29.53
2018-10-12T15:13:50.283Z,30.57
2018-10-12T15:16:20.206Z,29.93
2018-10-12T15:18:50.093Z,29.60
2018-10-12T15:21:20.230Z,28.90
2018-10-12T15:23:49.980Z,29.60
2018-10-12T15:26:19.948Z,27.97
2018-10-12T15:28:49.843Z,29.73
2018-10-12T15:31:20.220Z,28.10
2018-10-12T15:33:50.589Z,28.67
2018-10-12T15:36:21.064Z,28.47
2018-10-12T15:38:51.324Z,28.63
2018-10-12T15:41:21.647Z,28.43
2018-10-12T15:43:51.963Z,27.63
2018-10-12T15:46:22.269Z,29.20
2018-10-12T15:48:52.787Z,27.43
2018-10-12T15:51:23.066Z,27.07
2018-10-12T15:53:53.366Z,27.87
2018-10-12T15:56:23.851Z,29.10
2018-10-12T15:58:54.314Z,29.33
2018-10-12T16:01:24.523Z,28.27
2018-10-12T16:03:55.357Z,28.00
2018-10-12T16:06:26.040Z,28.50
2018-10-12T16:08:56.409Z,29.33
2018-10-12T16:11:27.448Z,29.60
2018-10-12T16:13:58.049Z,29.20
2018-10-12T16:16:28.406Z,50.80
2018-10-12T16:18:58.651Z,39.30
2018-10-12T16:21:29.307Z,31.87
2018-10-12T16:24:07.011Z,31.37
2018-10-12T16:26:37.572Z,28.43
2018-10-12T16:29:08.656Z,24.80
2018-10-12T16:31:39.744Z,30.00
2018-10-12T16:34:10.341Z,29.70
2018-10-12T16:36:41.157Z,29.77
2018-10-12T16:39:12.714Z,30.17
2018-10-12T16:41:43.588Z,32.27
2018-10-12T16:44:14.238Z,31.83
2018-10-12T16:46:44.349Z,31.07
2018-10-12T16:49:16.005Z,30.40
2018-10-12T16:51:46.651Z,31.63
2018-10-12T16:54:18.824Z,33.87
2018-10-12T16:56:49.095Z,32.97
2018-10-12T16:59:19.903Z,36.27
2018-10-12T17:01:50.167Z,36.10
2018-10-12T17:04:20.657Z,37.17
2018-10-12T17:06:50.989Z,36.20
2018-10-12T17:09:21.398Z,37.87
2018-10-12T17:11:51.848Z,37.23
2018-10-12T17:14:21.658Z,36.67
2018-10-12T17:16:52.465Z,34.50
2018-10-12T17:19:23.340Z,34.97
2018-10-12T17:21:53.450Z,36.37
2018-10-12T17:24:23.839Z,36.87
2018-10-12T17:26:53.927Z,37.10
2018-10-12T17:29:24.707Z,38.13
2018-10-12T17:31:54.467Z,36.70
2018-10-12T17:34:25.378Z,42.27
2018-10-12T17:36:56.498Z,37.80
2018-10-12T17:39:28.288Z,37.70
2018-10-12T17:42:11.912Z,38.60
2018-10-12T17:44:41.987Z,39.40
2018-10-12T17:47:12.580Z,39.40
2018-10-12T17:49:42.887Z,39.13
2018-10-12T17:52:13.304Z,84.27
2018-10-12T17:54:43.346Z,40.83
2018-10-12T17:57:13.665Z,38.97
2018-10-12T17:59:44.245Z,40.17
2018-10-12T18:02:16.198Z,38.53
2018-10-12T18:04:47.809Z,39.30
2018-10-12T18:07:19.144Z,41.67
2018-10-12T18:09:49.669Z,44.80
2018-10-12T18:12:20.218Z,45.20
2018-10-12T18:14:51.142Z,43.13
2018-10-12T18:17:21.523Z,44.33
2018-10-12T18:19:52.293Z,41.67
2018-10-12T18:22:22.327Z,41.23
2018-10-12T18:24:52.239Z,40.00
2018-10-12T18:27:22.823Z,41.00
2018-10-12T18:29:53.643Z,40.30
2018-10-12T18:32:24.771Z,41.17
2018-10-12T18:34:54.947Z,41.10
2018-10-12T18:37:25.935Z,42.50
2018-10-12T18:39:56.698Z,46.57
2018-10-12T18:42:26.491Z,46.87
2018-10-12T18:44:56.893Z,48.43
2018-10-12T18:47:28.622Z,44.83
2018-10-12T18:49:58.703Z,44.20
2018-10-12T18:52:31.111Z,41.43
2018-10-12T18:55:01.762Z,41.23
2018-10-12T18:57:35.820Z,43.60
2018-10-12T19:00:07.592Z,41.90
2018-10-12T19:02:37.351Z,42.47
2018-10-12T19:05:08.165Z,42.97
2018-10-12T19:07:38.191Z,45.07
2018-10-12T19:10:09.180Z,46.67
2018-10-12T19:12:39.562Z,44.17
2018-10-12T19:15:09.980Z,44.53
2018-10-12T19:17:40.438Z,140.83
2018-10-12T19:20:11.435Z,51.67
2018-10-12T19:22:41.169Z,45.77
2018-10-12T19:25:11.852Z,51.20
2018-10-12T19:27:42.815Z,54.97
2018-10-12T19:30:13.060Z,48.53
2018-10-12T19:32:42.817Z,45.80
2018-10-12T19:35:13.775Z,45.43
2018-10-12T19:37:43.743Z,46.30
2018-10-12T19:40:14.309Z,44.60
2018-10-12T19:42:44.075Z,46.23
2018-10-12T19:45:14.994Z,44.47
2018-10-12T19:47:49.172Z,44.57
2018-10-12T19:50:23.575Z,43.37
2018-10-12T19:52:57.824Z,42.67
2018-10-12T19:55:28.345Z,42.90
2018-10-12T19:57:58.763Z,41.97
2018-10-12T20:00:28.452Z,42.23
2018-10-12T20:02:58.512Z,43.27
2018-10-12T20:05:29.778Z,43.43
2018-10-12T20:08:00.260Z,43.43
2018-10-12T20:10:32.090Z,45.17
2018-10-12T20:13:02.138Z,44.73
2018-10-12T20:15:33.656Z,44.90
2018-10-12T20:18:04.407Z,44.13
2018-10-12T20:20:35.473Z,44.80
2018-10-12T20:23:05.989Z,43.10
2018-10-12T20:25:36.704Z,44.90
2018-10-12T20:28:06.441Z,46.10
2018-10-12T20:30:36.163Z,45.53
2018-10-12T20:33:06.444Z,45.60
2018-10-12T20:35:37.195Z,42.47
2018-10-12T20:38:07.350Z,45.27
2018-10-12T20:40:38.405Z,49.33
2018-10-12T20:43:08.266Z,44.70
2018-10-12T20:45:37.883Z,44.40
2018-10-12T20:48:08.563Z,45.57
2018-10-12T20:50:39.095Z,44.97
2018-10-12T20:53:10.254Z,44.03
2018-10-12T20:55:40.869Z,43.53
2018-10-12T20:58:16.325Z,44.60
2018-10-12T21:00:46.695Z,43.63
2018-10-12T21:03:25.510Z,42.97
2018-10-12T21:05:56.557Z,44.23
2018-10-12T21:08:27.118Z,43.60
2018-10-12T21:10:57.890Z,42.50
2018-10-12T21:13:28.786Z,41.70
2018-10-12T21:15:59.914Z,42.57
2018-10-12T21:18:30.576Z,41.10
2018-10-12T21:21:00.724Z,40.53
2018-10-12T21:23:33.350Z,43.37
2018-10-12T21:26:03.757Z,41.80
2018-10-12T21:28:35.991Z,42.53
2018-10-12T21:31:06.194Z,40.67
2018-10-12T21:33:36.564Z,40.53
2018-10-12T21:36:06.450Z,43.23
2018-10-12T21:38:36.517Z,44.93
2018-10-12T21:41:07.321Z,45.47
2018-10-12T21:43:37.585Z,42.37
2018-10-12T21:46:07.967Z,43.77
2018-10-12T21:48:39.705Z,41.67
2018-10-12T21:51:11.407Z,42.03
2018-10-12T21:53:42.491Z,40.57
2018-10-12T21:56:12.989Z,39.40
2018-10-12T21:58:44.376Z,40.87
2018-10-12T22:01:15.493Z,40.77
2018-10-12T22:03:45.844Z,42.07
2018-10-12T22:06:15.973Z,41.37
2018-10-12T22:08:54.228Z,42.33
2018-10-12T22:11:24.062Z,44.00
2018-10-12T22:13:53.895Z,42.00
2018-10-12T22:16:24.214Z,42.37
2018-10-12T22:18:54.127Z,43.83
2018-10-12T22:21:23.995Z,40.43
2018-10-12T22:23:53.905Z,39.80
2018-10-12T22:26:23.844Z,38.20
2018-10-12T22:28:53.743Z,38.77
2018-10-12T22:31:23.605Z,38.40
2018-10-12T22:33:53.561Z,39.77
2018-10-12T22:36:23.543Z,42.00
2018-10-12T22:38:53.548Z,42.13
2018-10-12T22:41:23.303Z,43.20
2018-10-12T22:43:53.267Z,43.20
2018-10-12T22:46:23.228Z,44.07
2018-10-12T22:48:53.108Z,44.47
2018-10-12T22:51:23.021Z,41.93
2018-10-12T22:53:52.938Z,39.83
2018-10-12T22:56:22.840Z,39.80
2018-10-12T22:58:52.745Z,40.27
2018-10-12T23:01:22.711Z,41.43
2018-10-12T23:03:52.770Z,42.47
2018-10-12T23:06:22.885Z,43.10
2018-10-12T23:08:52.809Z,41.37
2018-10-12T23:11:22.708Z,41.47
2018-10-12T23:13:52.507Z,41.20
2018-10-12T23:16:22.425Z,41.90
2018-10-12T23:18:52.268Z,41.77
2018-10-12T23:21:22.086Z,40.47
2018-10-12T23:23:51.966Z,41.00
2018-10-12T23:26:21.928Z,49.13
2018-10-12T23:28:51.908Z,51.00
2018-10-12T23:31:21.807Z,44.27
2018-10-12T23:34:08.548Z,43.07
2018-10-12T23:36:38.309Z,41.13
2018-10-12T23:39:09.471Z,39.73
2018-10-12T23:41:39.211Z,41.00
2018-10-12T23:44:09.078Z,39.17
2018-10-12T23:46:39.027Z,38.73
2018-10-12T23:49:08.909Z,39.20
2018-10-12T23:51:38.903Z,37.40
2018-10-12T23:54:08.818Z,38.17
2018-10-12T23:56:38.622Z,36.57
2018-10-12T23:59:08.372Z,39.47
